Goshen, Connecticut
Current Conditions -  °F | °C
As of 5:45 AM on Sunday 21 Dec 2014 (Local Time) from KOXC Reporting Station
Haze Haze  
Wind Chill: 24°   Ceiling: 500
Heat Index: 30°   Visibility: 5mi
Dew Point: 23°   Wind: 6mph
Humidity: 75%   Direction: 40°NE
Pressure: 30.25"   Gusts: NA
Location:  41.83°N, 73.23°W
Report Text: KOXC 211045Z 04005KT 5SM BR BKN005 OVC010 M01/M05 A3025
Loading
Personal Weather Stations






























Interactive Weather Map New forecast layout! Learn more

10-Day Weather Forecast

Advertisements
Track Severe Weather on mobile